BAW280 KSFO-EGLL
Flight info
| Callsign | BAW280 |
|---|---|
| Flight time | N/A |
| Altitude | 29000 |
| Route | SNTNA2 DEDHD DCT ILA DCT BKE DCT STIGS DCT 53N110W/N0497F310 DCT YVC DCT 60N095W 65N084W 67N070W/M085F330 DCT CANEL DCT 68N060W 68N050W 67N040W 66N030W/M085F350 63N020W DCT ERAKA/N0486F350 DCT ETSOM DCT KELLY L10 WAL UY53 NUGRA |
| Aircraft | B742/H-SDFHIRWXY/L |
Departure
| Time | N/A |
|---|---|
| Airport | San Francisco International Airport (KSFO) |
Arrival
| Time | 2026-05-04 07:45 |
|---|---|
| Airport | London Heathrow Airport (EGLL) |
| Time | Latitude | Longitude | Altitude | Speed | Heading |
|---|---|---|---|---|---|
| 2026-05-04 07:03 | 53.21983 | -3.16473 | 32904 ft | 522 kts | 124° |
| 2026-05-04 07:03 | 53.19824 | -3.11672 | 32979 ft | 522 kts | 124° |
| 2026-05-04 07:04 | 53.15492 | -3.02070 | 33048 ft | 523 kts | 124° |
| 2026-05-04 07:04 | 53.11173 | -2.92317 | 33055 ft | 522 kts | 123° |
| 2026-05-04 07:05 | 53.07050 | -2.82452 | 33050 ft | 521 kts | 122° |
| 2026-05-04 07:05 | 53.02975 | -2.72546 | 33041 ft | 521 kts | 123° |
| 2026-05-04 07:06 | 52.97912 | -2.64008 | 33043 ft | 525 kts | 141° |
| 2026-05-04 07:06 | 52.94957 | -2.60538 | 33042 ft | 526 kts | 145° |
| 2026-05-04 07:07 | 52.88768 | -2.54089 | 33039 ft | 527 kts | 147° |
| 2026-05-04 07:09 | 52.64078 | -2.28665 | 32617 ft | 515 kts | 148° |
| 2026-05-04 07:09 | 52.61067 | -2.25563 | 32087 ft | 513 kts | 148° |
| 2026-05-04 07:09 | 52.58076 | -2.22488 | 31601 ft | 509 kts | 148° |
| 2026-05-04 07:09 | 52.55088 | -2.19419 | 31154 ft | 504 kts | 148° |
| 2026-05-04 07:10 | 52.52147 | -2.16404 | 30299 ft | 493 kts | 148° |
| 2026-05-04 07:10 | 52.49274 | -2.13460 | 29237 ft | 487 kts | 149° |
| 2026-05-04 07:12 | 52.30334 | -1.94188 | 23307 ft | 442 kts | 150° |
| 2026-05-04 07:12 | 52.27752 | -1.91579 | 22794 ft | 438 kts | 150° |
| 2026-05-04 07:12 | 52.25177 | -1.88980 | 22312 ft | 436 kts | 150° |
| 2026-05-04 07:12 | 52.22610 | -1.86380 | 21828 ft | 433 kts | 149° |
| 2026-05-04 07:13 | 52.20159 | -1.83632 | 21352 ft | 431 kts | 146° |
| 2026-05-04 07:13 | 52.17783 | -1.80662 | 20890 ft | 429 kts | 143° |
| 2026-05-04 07:13 | 52.15476 | -1.77600 | 20440 ft | 427 kts | 142° |
| 2026-05-04 07:14 | 52.06590 | -1.65305 | 18675 ft | 417 kts | 141° |
| 2026-05-04 07:14 | 52.04401 | -1.62264 | 18238 ft | 414 kts | 141° |
| 2026-05-04 07:15 | 52.02218 | -1.59236 | 17797 ft | 412 kts | 141° |
| 2026-05-04 07:15 | 52.00040 | -1.56220 | 17285 ft | 406 kts | 141° |
| 2026-05-04 07:15 | 51.97939 | -1.53312 | 16296 ft | 401 kts | 141° |
| 2026-05-04 07:15 | 51.95864 | -1.50445 | 15617 ft | 388 kts | 141° |
| 2026-05-04 07:16 | 51.93861 | -1.47679 | 15259 ft | 373 kts | 141° |
| 2026-05-04 07:16 | 51.91892 | -1.44964 | 15033 ft | 364 kts | 141° |
| 2026-05-04 07:16 | 51.89997 | -1.42356 | 14974 ft | 353 kts | 141° |
| 2026-05-04 07:16 | 51.88124 | -1.39782 | 14964 ft | 354 kts | 141° |
| 2026-05-04 07:17 | 51.86300 | -1.37216 | 14958 ft | 346 kts | 140° |
| 2026-05-04 07:17 | 51.84541 | -1.34573 | 14975 ft | 346 kts | 135° |
| 2026-05-04 07:17 | 51.83051 | -1.31537 | 14990 ft | 350 kts | 126° |
| 2026-05-04 07:17 | 51.81792 | -1.28152 | 14975 ft | 350 kts | 122° |
| 2026-05-04 07:18 | 51.80618 | -1.24714 | 14822 ft | 347 kts | 121° |
| 2026-05-04 07:18 | 51.79472 | -1.21311 | 14486 ft | 347 kts | 121° |
| 2026-05-04 07:18 | 51.78331 | -1.17924 | 14190 ft | 345 kts | 122° |
| 2026-05-04 07:18 | 51.77052 | -1.14688 | 13890 ft | 342 kts | 127° |
| 2026-05-04 07:19 | 51.75727 | -1.11586 | 13267 ft | 338 kts | 127° |
| 2026-05-04 07:19 | 51.74394 | -1.08493 | 12597 ft | 335 kts | 127° |
| 2026-05-04 07:19 | 51.73265 | -1.05223 | 11898 ft | 335 kts | 111° |
| 2026-05-04 07:19 | 51.72793 | -1.01609 | 11248 ft | 334 kts | 94° |
| 2026-05-04 07:20 | 51.72829 | -0.97867 | 10598 ft | 332 kts | 88° |
| 2026-05-04 07:20 | 51.72922 | -0.94211 | 9997 ft | 326 kts | 90° |
| 2026-05-04 07:20 | 51.72935 | -0.90694 | 9921 ft | 304 kts | 91° |
| 2026-05-04 07:20 | 51.72920 | -0.87386 | 9891 ft | 283 kts | 92° |
| 2026-05-04 07:22 | 51.72725 | -0.65201 | 8071 ft | 283 kts | 91° |
| 2026-05-04 07:22 | 51.72693 | -0.62041 | 7694 ft | 279 kts | 91° |
| 2026-05-04 07:23 | 51.72660 | -0.58933 | 7323 ft | 280 kts | 91° |
| 2026-05-04 07:23 | 51.72626 | -0.55806 | 7081 ft | 277 kts | 90° |
| 2026-05-04 07:23 | 51.72622 | -0.52734 | 7016 ft | 275 kts | 90° |
| 2026-05-04 07:23 | 51.72601 | -0.49642 | 6998 ft | 278 kts | 92° |
| 2026-05-04 07:24 | 51.72139 | -0.46649 | 6998 ft | 279 kts | 120° |
| 2026-05-04 07:24 | 51.70826 | -0.44411 | 6998 ft | 279 kts | 150° |
| 2026-05-04 07:24 | 51.68988 | -0.43522 | 6999 ft | 278 kts | 180° |
| 2026-05-04 07:24 | 51.67097 | -0.44093 | 7005 ft | 278 kts | 198° |
| 2026-05-04 07:25 | 51.65276 | -0.45137 | 7004 ft | 277 kts | 200° |
| 2026-05-04 07:26 | 51.53030 | -0.53048 | 5437 ft | 271 kts | 224° |
| 2026-05-04 07:27 | 51.52054 | -0.55585 | 5307 ft | 270 kts | 255° |
| 2026-05-04 07:27 | 51.51962 | -0.58563 | 5163 ft | 268 kts | 282° |
| 2026-05-04 07:27 | 51.52504 | -0.61352 | 5035 ft | 258 kts | 290° |
| 2026-05-04 07:27 | 51.53117 | -0.63989 | 4996 ft | 248 kts | 290° |
| 2026-05-04 07:28 | 51.53724 | -0.66573 | 4923 ft | 246 kts | 290° |
| 2026-05-04 07:28 | 51.54325 | -0.69144 | 4748 ft | 246 kts | 290° |
| 2026-05-04 07:28 | 51.54921 | -0.71699 | 4589 ft | 246 kts | 290° |
| 2026-05-04 07:28 | 51.55254 | -0.74376 | 4377 ft | 246 kts | 272° |
| 2026-05-04 07:29 | 51.55293 | -0.77068 | 4344 ft | 240 kts | 271° |
| 2026-05-04 07:29 | 51.55309 | -0.79698 | 4336 ft | 231 kts | 271° |
| 2026-05-04 07:29 | 51.55318 | -0.82241 | 4025 ft | 228 kts | 270° |
| 2026-05-04 07:29 | 51.55325 | -0.84809 | 3664 ft | 227 kts | 271° |
| 2026-05-04 07:30 | 51.55300 | -0.87334 | 3285 ft | 232 kts | 261° |
| 2026-05-04 07:30 | 51.54579 | -0.89665 | 3075 ft | 238 kts | 224° |
| 2026-05-04 07:30 | 51.53143 | -0.90846 | 3016 ft | 235 kts | 187° |
| 2026-05-04 07:30 | 51.51546 | -0.90434 | 3012 ft | 235 kts | 151° |
| 2026-05-04 07:31 | 51.50265 | -0.88851 | 3011 ft | 233 kts | 136° |
| 2026-05-04 07:31 | 51.49073 | -0.87113 | 2999 ft | 233 kts | 136° |
| 2026-05-04 07:33 | 51.39862 | -0.73359 | 6502 ft | 291 kts | 126° |
| 2026-05-04 07:33 | 51.39081 | -0.70512 | 6818 ft | 279 kts | 98° |
| 2026-05-04 07:33 | 51.38912 | -0.67400 | 6959 ft | 282 kts | 91° |
| 2026-05-04 07:33 | 51.38845 | -0.64290 | 6973 ft | 279 kts | 91° |
| 2026-05-04 07:34 | 51.38797 | -0.61193 | 6971 ft | 278 kts | 91° |
| 2026-05-04 07:34 | 51.38758 | -0.58142 | 6974 ft | 278 kts | 90° |
| 2026-05-04 07:34 | 51.38723 | -0.55038 | 6977 ft | 278 kts | 90° |
| 2026-05-04 07:34 | 51.38689 | -0.51953 | 6979 ft | 278 kts | 90° |
| 2026-05-04 07:35 | 51.38657 | -0.48857 | 6981 ft | 278 kts | 90° |
| 2026-05-04 07:35 | 51.38627 | -0.45801 | 6979 ft | 278 kts | 90° |
| 2026-05-04 07:35 | 51.38596 | -0.42690 | 6968 ft | 276 kts | 90° |
| 2026-05-04 07:35 | 51.38567 | -0.39646 | 6806 ft | 276 kts | 90° |
| 2026-05-04 07:36 | 51.38536 | -0.36568 | 6649 ft | 276 kts | 90° |
| 2026-05-04 07:36 | 51.38505 | -0.33501 | 6507 ft | 275 kts | 91° |
| 2026-05-04 07:38 | 51.38290 | -0.13180 | 4110 ft | 243 kts | 89° |
| 2026-05-04 07:38 | 51.38732 | -0.10648 | 3731 ft | 239 kts | 64° |
| 2026-05-04 07:38 | 51.39520 | -0.08253 | 3371 ft | 245 kts | 61° |
| 2026-05-04 07:38 | 51.40325 | -0.05877 | 3108 ft | 240 kts | 59° |
| 2026-05-04 07:39 | 51.41481 | -0.04159 | 3025 ft | 222 kts | 22° |
| 2026-05-04 07:39 | 51.42960 | -0.03968 | 3038 ft | 215 kts | 345° |
| 2026-05-04 07:39 | 51.44180 | -0.05285 | 3045 ft | 215 kts | 313° |
| 2026-05-04 07:39 | 51.45090 | -0.07194 | 3033 ft | 213 kts | 306° |
| 2026-05-04 07:40 | 51.45914 | -0.09091 | 3024 ft | 198 kts | 306° |
| 2026-05-04 07:40 | 51.46695 | -0.10903 | 3017 ft | 197 kts | 306° |
| 2026-05-04 07:40 | 51.47467 | -0.12710 | 3004 ft | 195 kts | 305° |
| 2026-05-04 07:40 | 51.47847 | -0.14774 | 2998 ft | 199 kts | 268° |
| 2026-05-04 07:41 | 51.47767 | -0.17016 | 3013 ft | 199 kts | 272° |
| 2026-05-04 07:41 | 51.47783 | -0.19163 | 2991 ft | 181 kts | 272° |
| 2026-05-04 07:41 | 51.47797 | -0.21110 | 2966 ft | 169 kts | 273° |
| 2026-05-04 07:41 | 51.47803 | -0.22960 | 2714 ft | 162 kts | 272° |
| 2026-05-04 07:42 | 51.47804 | -0.24759 | 2415 ft | 158 kts | 272° |
| 2026-05-04 07:42 | 51.47802 | -0.26487 | 2169 ft | 151 kts | 272° |
| 2026-05-04 07:42 | 51.47798 | -0.28122 | 1958 ft | 146 kts | 273° |
| 2026-05-04 07:42 | 51.47797 | -0.29766 | 1781 ft | 145 kts | 272° |
| 2026-05-04 07:43 | 51.47794 | -0.31383 | 1594 ft | 145 kts | 272° |
| 2026-05-04 07:43 | 51.47794 | -0.32999 | 1391 ft | 146 kts | 271° |
| 2026-05-04 07:43 | 51.47787 | -0.34626 | 1212 ft | 146 kts | 273° |
| 2026-05-04 07:43 | 51.47783 | -0.36244 | 1024 ft | 148 kts | 272° |
| 2026-05-04 07:44 | 51.47774 | -0.37903 | 810 ft | 150 kts | 272° |
| 2026-05-04 07:44 | 51.47760 | -0.39598 | 624 ft | 151 kts | 271° |
| 2026-05-04 07:44 | 51.47765 | -0.41279 | 399 ft | 151 kts | 273° |
| 2026-05-04 07:44 | 51.47761 | -0.42947 | 188 ft | 151 kts | 272° |
| 2026-05-04 07:45 | 51.47762 | -0.44612 | 88 ft | 137 kts | 271° |
| 2026-05-04 07:45 | 51.47759 | -0.45796 | 89 ft | 74 kts | 270° |
| 2026-05-04 07:45 | 51.47758 | -0.46373 | 90 ft | 36 kts | 270° |
| 2026-05-04 07:45 | 51.47720 | -0.46657 | 90 ft | 19 kts | 248° |
| 2026-05-04 07:46 | 51.47673 | -0.46816 | 89 ft | 11 kts | 243° |
| 2026-05-04 07:46 | 51.47617 | -0.46880 | 89 ft | 9 kts | 173° |
| 2026-05-04 07:46 | 51.47590 | -0.46798 | 89 ft | 9 kts | 87° |
| 2026-05-04 07:46 | 51.47589 | -0.46704 | 89 ft | 7 kts | 88° |
| 2026-05-04 07:47 | 51.47591 | -0.46619 | 89 ft | 7 kts | 89° |
| 2026-05-04 07:47 | 51.47592 | -0.46538 | 89 ft | 7 kts | 90° |
| 2026-05-04 07:47 | 51.47593 | -0.46431 | 89 ft | 14 kts | 90° |
| 2026-05-04 07:49 | 51.47597 | -0.45081 | 88 ft | 16 kts | 90° |
| 2026-05-04 07:49 | 51.47597 | -0.44897 | 88 ft | 16 kts | 90° |
| 2026-05-04 07:49 | 51.47598 | -0.44733 | 88 ft | 10 kts | 90° |
| 2026-05-04 07:50 | 51.47582 | -0.44654 | 88 ft | 7 kts | 170° |
| 2026-05-04 07:50 | 51.47532 | -0.44665 | 88 ft | 5 kts | 175° |
| 2026-05-04 07:50 | 51.47505 | -0.44619 | 87 ft | 5 kts | 108° |
| 2026-05-04 07:50 | 51.47481 | -0.44565 | 87 ft | 9 kts | 164° |
| 2026-05-04 07:51 | 51.47383 | -0.44560 | 87 ft | 18 kts | 180° |
| 2026-05-04 07:51 | 51.47256 | -0.44558 | 87 ft | 18 kts | 180° |
| 2026-05-04 07:51 | 51.47128 | -0.44558 | 87 ft | 18 kts | 180° |
| 2026-05-04 07:51 | 51.47002 | -0.44557 | 86 ft | 18 kts | 180° |
| 2026-05-04 07:52 | 51.46877 | -0.44556 | 86 ft | 17 kts | 180° |
| 2026-05-04 07:52 | 51.46818 | -0.44556 | 86 ft | 1 kts | 181° |
| 2026-05-04 07:52 | 51.46823 | -0.44556 | 86 ft | 0 kts | 181° |
| 2026-05-04 07:54 | 51.46805 | -0.44556 | 86 ft | 7 kts | 181° |
| 2026-05-04 07:55 | 51.46754 | -0.44556 | 86 ft | 2 kts | 180° |
| 2026-05-04 07:55 | 51.46753 | -0.44556 | 86 ft | 0 kts | 180° |
| 2026-05-04 07:56 | 51.46695 | -0.44555 | 86 ft | 10 kts | 180° |
| 2026-05-04 07:56 | 51.46668 | -0.44593 | 86 ft | 7 kts | 262° |
| 2026-05-04 07:56 | 51.46633 | -0.44691 | 86 ft | 14 kts | 223° |
| 2026-05-04 07:56 | 51.46519 | -0.44851 | 85 ft | 27 kts | 221° |
| 2026-05-04 07:57 | 51.46381 | -0.45050 | 85 ft | 24 kts | 222° |
| 2026-05-04 07:57 | 51.46258 | -0.45224 | 85 ft | 23 kts | 221° |
| 2026-05-04 07:57 | 51.46199 | -0.45311 | 85 ft | 5 kts | 237° |
| 2026-05-04 07:57 | 51.46196 | -0.45387 | 85 ft | 7 kts | 273° |
| 2026-05-04 07:58 | 51.46205 | -0.45461 | 85 ft | 5 kts | 302° |
| 2026-05-04 07:58 | 51.46204 | -0.45514 | 86 ft | 7 kts | 242° |
| 2026-05-04 07:58 | 51.46183 | -0.45564 | 86 ft | 3 kts | 236° |
| 2026-05-04 07:58 | 51.46172 | -0.45589 | 86 ft | 1 kts | 236° |
| 2026-05-04 07:59 | 51.46171 | -0.45591 | 86 ft | 0 kts | 236° |